Time;durP1;ratioP1;P1;durP2;ratioP2;P2;SDS_P1;SDS_P2;PMS_P1;PMS_P2;Temp;Humidity;BMP_temperature;BMP_pressure;BME280_temperature;BME280_humidity;BME280_pressure;Samples;Min_cycle;Max_cycle;Signal;HPM_P1;HPM_P2
2022/01/13 00:00:17;;;;;;;175.35;43.13;;;4.10;99.90;;;;;;5061373;28;20084;-50
2022/01/13 00:02:43;;;;;;;208.73;43.72;;;4.10;99.90;;;;;;5061178;28;20051;-50
2022/01/13 00:05:09;;;;;;;178.70;42.58;;;4.10;99.90;;;;;;5054879;28;20130;-48
2022/01/13 00:07:36;;;;;;;181.38;41.17;;;4.10;99.90;;;;;;5063184;28;20464;-52
2022/01/13 00:10:03;;;;;;;222.95;45.15;;;4.10;99.90;;;;;;5064049;28;20119;-51
2022/01/13 00:12:34;;;;;;;209.13;44.17;;;4.10;99.90;;;;;;5064970;28;20399;-48
2022/01/13 00:20:31;;;;;;;209.48;42.75;;;4.10;99.90;;;;;;5065247;28;20139;-50
2022/01/13 00:25:41;;;;;;;228.00;41.30;;;4.10;99.90;;;;;;5065235;28;20101;-51
2022/01/13 00:28:16;;;;;;;280.77;45.17;;;4.10;99.90;;;;;;5063595;28;20036;-51
2022/01/13 00:30:41;;;;;;;241.70;43.00;;;4.20;99.90;;;;;;5062244;28;20152;-48
2022/01/13 00:33:09;;;;;;;283.80;45.08;;;4.10;99.90;;;;;;5063404;28;20160;-49
2022/01/13 00:35:35;;;;;;;275.55;44.53;;;4.10;99.90;;;;;;5063972;28;20087;-50
2022/01/13 00:38:01;;;;;;;259.52;42.58;;;4.10;99.90;;;;;;5058425;28;20403;-48
2022/01/13 00:40:26;;;;;;;193.15;40.67;;;4.10;99.90;;;;;;5066889;28;20454;-48
2022/01/13 00:42:52;;;;;;;320.50;45.78;;;4.20;99.90;;;;;;5063954;28;20052;-49
2022/01/13 00:45:17;;;;;;;247.43;41.95;;;4.20;99.90;;;;;;5062604;28;20050;-48
2022/01/13 00:47:44;;;;;;;252.82;41.35;;;4.20;99.90;;;;;;5066153;28;20049;-48
2022/01/13 00:50:09;;;;;;;246.95;41.30;;;4.20;99.90;;;;;;5065018;28;20120;-48
2022/01/13 00:52:35;;;;;;;283.08;43.90;;;4.20;99.90;;;;;;5059975;28;20171;-50
2022/01/13 00:55:08;;;;;;;224.70;41.03;;;4.20;99.90;;;;;;5062123;28;20052;-49
2022/01/13 00:57:34;;;;;;;300.65;40.80;;;4.20;99.90;;;;;;5067269;28;20121;-48
2022/01/13 01:00:00;;;;;;;233.00;37.90;;;4.20;99.90;;;;;;5063904;28;20181;-48
2022/01/13 01:02:26;;;;;;;262.08;39.10;;;4.20;99.90;;;;;;5062263;28;20389;-50
2022/01/13 01:04:53;;;;;;;234.85;38.67;;;4.20;99.90;;;;;;5058464;28;20028;-50
2022/01/13 01:07:18;;;;;;;227.50;38.22;;;4.20;99.90;;;;;;5061147;28;20152;-49
2022/01/13 01:09:49;;;;;;;344.75;41.72;;;4.30;99.90;;;;;;5058834;28;20044;-52
2022/01/13 01:12:17;;;;;;;279.75;39.63;;;4.30;99.90;;;;;;5062178;28;20051;-51
2022/01/13 01:14:49;;;;;;;271.40;39.05;;;4.30;99.90;;;;;;5062173;28;20122;-50
2022/01/13 01:17:16;;;;;;;289.67;39.70;;;4.30;99.90;;;;;;5060993;28;20048;-50
2022/01/13 01:19:48;;;;;;;315.13;40.53;;;4.30;99.90;;;;;;5058874;28;20041;-47
2022/01/13 01:25:06;;;;;;;309.25;40.88;;;4.30;99.90;;;;;;5059633;28;20044;-48
2022/01/13 01:27:39;;;;;;;264.20;39.63;;;4.30;99.90;;;;;;5057183;28;20040;-51
2022/01/13 01:30:33;;;;;;;267.33;39.42;;;4.30;99.90;;;;;;5066789;28;20390;-51
2022/01/13 01:32:55;;;;;;;304.33;38.65;;;4.30;99.90;;;;;;5065832;28;20060;-51
2022/01/13 01:35:25;;;;;;;325.63;40.60;;;4.30;99.90;;;;;;5062919;28;20053;-53
2022/01/13 01:37:50;;;;;;;276.02;39.10;;;4.30;99.90;;;;;;5060815;28;20119;-50
2022/01/13 01:40:16;;;;;;;265.55;38.60;;;4.30;99.90;;;;;;5057645;28;20469;-49
2022/01/13 01:42:42;;;;;;;260.42;39.67;;;4.30;99.90;;;;;;5067491;28;20165;-53
2022/01/13 01:45:09;;;;;;;327.67;40.67;;;4.30;99.90;;;;;;5059475;28;20079;-49
2022/01/13 01:47:35;;;;;;;291.80;39.80;;;4.30;99.90;;;;;;5061638;28;20375;-50
2022/01/13 01:50:12;;;;;;;350.13;40.28;;;4.30;99.90;;;;;;5055661;28;20181;-53
2022/01/13 01:52:39;;;;;;;347.23;41.42;;;4.30;99.90;;;;;;5062556;28;20037;-51
2022/01/13 01:55:06;;;;;;;401.90;42.28;;;4.40;99.90;;;;;;5064579;28;20115;-49
2022/01/13 01:57:33;;;;;;;325.25;41.17;;;4.40;99.90;;;;;;5055713;28;20059;-50
2022/01/13 01:59:59;;;;;;;256.58;38.15;;;4.40;99.90;;;;;;5057981;28;20052;-51
2022/01/13 02:02:27;;;;;;;370.70;40.20;;;4.40;99.90;;;;;;5054815;28;20048;-51
2022/01/13 02:04:53;;;;;;;261.80;39.20;;;4.40;99.90;;;;;;5057717;28;20052;-50
2022/01/13 02:07:18;;;;;;;300.30;37.97;;;4.40;99.90;;;;;;5058151;28;20036;-50
2022/01/13 02:09:49;;;;;;;299.75;39.20;;;4.40;99.90;;;;;;5057168;28;20045;-50
2022/01/13 02:12:25;;;;;;;333.33;39.08;;;4.40;99.90;;;;;;5058703;28;21219;-50
2022/01/13 02:17:39;;;;;;;308.60;39.83;;;4.40;99.90;;;;;;5058256;28;20053;-53
2022/01/13 02:20:06;;;;;;;290.30;38.78;;;4.40;99.90;;;;;;5062953;28;20056;-50
2022/01/13 02:22:32;;;;;;;282.58;37.63;;;4.40;99.90;;;;;;5065429;28;20090;-48
2022/01/13 02:24:59;;;;;;;308.77;39.72;;;4.40;99.90;;;;;;5055342;28;20052;-53
2022/01/13 02:27:25;;;;;;;316.90;37.65;;;4.40;99.90;;;;;;5060044;28;20052;-53
2022/01/13 02:29:50;;;;;;;298.48;37.97;;;4.40;99.90;;;;;;5055876;28;20071;-50
2022/01/13 02:32:16;;;;;;;274.70;37.70;;;4.40;99.90;;;;;;5057639;28;20045;-50
2022/01/13 02:34:42;;;;;;;305.63;38.15;;;4.40;99.90;;;;;;5061625;28;20037;-48
2022/01/13 02:37:08;;;;;;;244.23;35.38;;;4.40;99.90;;;;;;5064421;28;20441;-49
2022/01/13 02:39:34;;;;;;;362.85;37.58;;;4.40;99.90;;;;;;5053641;28;20044;-48
2022/01/13 02:42:03;;;;;;;312.80;37.25;;;4.50;99.90;;;;;;5062466;28;20123;-51
2022/01/13 02:44:30;;;;;;;302.85;36.42;;;4.50;99.90;;;;;;5054362;28;20044;-49
2022/01/13 02:47:09;;;;;;;263.63;36.35;;;4.50;99.90;;;;;;5058179;28;20098;-49
2022/01/13 02:49:35;;;;;;;343.90;38.33;;;4.50;99.90;;;;;;5060393;28;20514;-52
2022/01/13 02:52:02;;;;;;;223.38;35.15;;;4.50;99.90;;;;;;5062155;28;20041;-50
2022/01/13 02:54:28;;;;;;;324.33;38.20;;;4.50;99.90;;;;;;5056177;28;20408;-47
2022/01/13 02:56:54;;;;;;;270.42;37.05;;;4.50;99.90;;;;;;5066171;28;20078;-47
2022/01/13 02:59:19;;;;;;;260.20;37.13;;;4.50;99.90;;;;;;5061581;28;20076;-48
2022/01/13 03:01:45;;;;;;;230.52;36.40;;;4.50;99.90;;;;;;5066240;28;20045;-50
2022/01/13 03:04:10;;;;;;;329.55;39.58;;;4.50;99.90;;;;;;5060845;28;20072;-48
2022/01/13 03:06:39;;;;;;;254.48;35.95;;;4.50;99.90;;;;;;5058685;28;20055;-48
2022/01/13 03:09:12;;;;;;;278.67;35.65;;;4.50;99.90;;;;;;5057196;28;20037;-50
2022/01/13 03:11:38;;;;;;;282.45;37.85;;;4.50;99.90;;;;;;5060341;28;20032;-52
2022/01/13 03:14:06;;;;;;;307.50;38.10;;;4.50;99.90;;;;;;5061503;28;20052;-50
2022/01/13 03:16:31;;;;;;;300.30;38.08;;;4.50;99.90;;;;;;5057911;28;20479;-50
2022/01/13 03:18:57;;;;;;;243.20;35.30;;;4.50;99.90;;;;;;5064171;28;20055;-50
2022/01/13 03:21:23;;;;;;;224.85;35.28;;;4.50;99.90;;;;;;5065773;28;20405;-52
2022/01/13 03:23:50;;;;;;;267.30;36.63;;;4.50;99.90;;;;;;5065248;28;20124;-50
2022/01/13 03:26:15;;;;;;;263.02;36.47;;;4.50;99.90;;;;;;5063048;28;20143;-49
2022/01/13 03:28:51;;;;;;;283.55;36.67;;;4.50;99.90;;;;;;5057680;28;20168;-49
2022/01/13 03:31:22;;;;;;;248.98;35.38;;;4.50;99.90;;;;;;5065632;28;20506;-51
2022/01/13 03:33:49;;;;;;;276.63;36.95;;;4.50;99.90;;;;;;5066622;28;20037;-48
2022/01/13 03:36:15;;;;;;;241.13;36.33;;;4.50;99.90;;;;;;5069377;28;20447;-49
2022/01/13 03:38:40;;;;;;;283.40;37.72;;;4.60;99.90;;;;;;5058676;28;20134;-49
2022/01/13 03:41:06;;;;;;;212.48;33.58;;;4.50;99.90;;;;;;5061125;28;20048;-47
2022/01/13 03:43:35;;;;;;;265.80;35.58;;;4.50;99.90;;;;;;5069725;28;20090;-50
2022/01/13 03:46:00;;;;;;;209.52;32.20;;;4.60;99.90;;;;;;5062965;28;20048;-50
2022/01/13 03:48:26;;;;;;;170.63;32.80;;;4.60;99.90;;;;;;5067228;28;20112;-50
2022/01/13 03:50:51;;;;;;;276.05;36.25;;;4.60;99.90;;;;;;5061899;28;20048;-49
2022/01/13 03:53:26;;;;;;;232.25;35.40;;;4.50;99.90;;;;;;5069941;28;20174;-49
2022/01/13 03:56:46;;;;;;;294.55;37.05;;;4.50;99.90;;;;;;5064413;28;20140;-47
2022/01/13 03:59:46;;;;;;;273.67;34.60;;;4.60;99.90;;;;;;5057919;28;20071;-51
2022/01/13 04:02:14;;;;;;;268.45;35.25;;;4.60;99.90;;;;;;5059884;28;20110;-51
2022/01/13 04:04:48;;;;;;;285.45;36.72;;;4.50;99.90;;;;;;5066050;28;20052;-49
2022/01/13 04:07:19;;;;;;;278.00;36.40;;;4.50;99.90;;;;;;5065143;28;20052;-53
2022/01/13 04:09:45;;;;;;;270.55;35.38;;;4.50;99.90;;;;;;5066679;28;20269;-49
2022/01/13 04:12:13;;;;;;;226.20;33.83;;;4.50;99.90;;;;;;5067280;28;20257;-50
2022/01/13 04:14:46;;;;;;;;;;;4.50;99.90;;;;;;5062702;28;20057;-51
2022/01/13 04:17:23;;;;;;;247.88;34.28;;;4.50;99.90;;;;;;5058135;28;19931;-52
2022/01/13 04:19:49;;;;;;;267.83;33.50;;;4.50;99.90;;;;;;5066978;28;20036;-51
2022/01/13 04:22:17;;;;;;;274.10;35.42;;;4.50;99.90;;;;;;5067860;28;20044;-52
2022/01/13 04:24:47;;;;;;;323.75;35.33;;;4.50;99.90;;;;;;5064487;28;20059;-48
2022/01/13 04:27:29;;;;;;;242.82;35.15;;;4.50;99.90;;;;;;5057194;28;20044;-51
2022/01/13 04:32:39;;;;;;;234.10;34.25;;;4.50;99.90;;;;;;5064738;28;20056;-51
2022/01/13 04:35:06;;;;;;;226.45;31.90;;;4.50;99.90;;;;;;5064351;28;20045;-49
2022/01/13 04:37:32;;;;;;;200.25;32.03;;;4.50;99.90;;;;;;5062533;28;20508;-49
2022/01/13 04:39:58;;;;;;;200.07;31.70;;;4.50;99.90;;;;;;5060565;28;20127;-50
2022/01/13 04:42:24;;;;;;;253.73;32.83;;;4.50;99.90;;;;;;5062630;28;20064;-52
2022/01/13 04:44:49;;;;;;;240.05;34.08;;;4.50;99.90;;;;;;5069908;28;20045;-50
2022/01/13 04:47:15;;;;;;;226.73;33.53;;;4.50;99.90;;;;;;5057828;28;20075;-49
2022/01/13 04:49:40;;;;;;;277.77;35.97;;;4.40;99.90;;;;;;5058982;28;20155;-48
2022/01/13 04:52:06;;;;;;;229.68;34.75;;;4.50;99.90;;;;;;5062927;28;20060;-49
2022/01/13 04:54:31;;;;;;;297.30;37.25;;;4.40;99.90;;;;;;5064313;28;20448;-50
2022/01/13 04:57:07;;;;;;;233.82;35.28;;;4.40;99.90;;;;;;5063166;28;20029;-52
2022/01/13 04:59:32;;;;;;;306.25;37.60;;;4.40;99.90;;;;;;5058309;28;20455;-48
2022/01/13 05:02:00;;;;;;;224.23;34.70;;;4.40;99.90;;;;;;5060263;28;20140;-48
2022/01/13 05:04:25;;;;;;;175.65;32.28;;;4.40;99.90;;;;;;5056536;28;20066;-50
2022/01/13 05:06:51;;;;;;;250.48;35.63;;;4.40;99.90;;;;;;5060497;28;20037;-49
2022/01/13 05:09:16;;;;;;;261.35;35.10;;;4.40;99.90;;;;;;5056585;28;20054;-48
2022/01/13 05:11:42;;;;;;;215.95;34.15;;;4.40;99.90;;;;;;5053787;28;20057;-52
2022/01/13 05:14:08;;;;;;;232.10;34.85;;;4.30;99.90;;;;;;5054894;28;20130;-48
2022/01/13 05:16:52;;;;;;;274.50;35.70;;;4.30;99.90;;;;;;5057559;28;21249;-49
2022/01/13 05:19:31;;;;;;;235.73;34.22;;;4.30;99.90;;;;;;5063957;28;20053;-49
2022/01/13 05:24:27;;;;;;;;;;;4.30;99.90;;;;;;5057914;28;20044;-50
2022/01/13 05:26:53;;;;;;;206.05;32.25;;;4.30;99.90;;;;;;5055710;28;19938;-51
2022/01/13 05:29:20;;;;;;;208.57;32.70;;;4.30;99.90;;;;;;5059517;28;20040;-52
2022/01/13 05:31:48;;;;;;;331.77;36.63;;;4.30;99.90;;;;;;5062422;28;20197;-47
2022/01/13 05:34:14;;;;;;;235.40;33.85;;;4.30;99.90;;;;;;5061567;28;20040;-50
2022/01/13 05:36:40;;;;;;;270.00;35.22;;;4.30;99.90;;;;;;5061889;28;20053;-50
2022/01/13 05:39:05;;;;;;;193.43;31.63;;;4.30;99.90;;;;;;5059921;28;20045;-48
2022/01/13 05:41:33;;;;;;;231.43;33.70;;;4.30;99.90;;;;;;5061277;28;20040;-52
2022/01/13 05:43:59;;;;;;;195.35;31.63;;;4.30;99.90;;;;;;5062520;28;20132;-52
2022/01/13 05:46:25;;;;;;;285.27;34.58;;;4.30;99.90;;;;;;5067187;28;20052;-52
2022/01/13 05:48:51;;;;;;;229.15;33.35;;;4.30;99.90;;;;;;5061234;28;20121;-50
2022/01/13 05:51:16;;;;;;;222.93;31.80;;;4.30;99.90;;;;;;5061257;28;20056;-51
2022/01/13 05:53:42;;;;;;;266.35;34.05;;;4.30;99.90;;;;;;5051600;28;20139;-53
2022/01/13 05:56:09;;;;;;;219.73;31.75;;;4.30;99.90;;;;;;5066085;28;20072;-50
2022/01/13 05:58:35;;;;;;;261.20;32.60;;;4.30;99.90;;;;;;5060850;28;20147;-50
2022/01/13 06:01:00;;;;;;;222.68;32.88;;;4.30;99.90;;;;;;5065729;28;20135;-51
2022/01/13 06:03:26;;;;;;;226.88;30.92;;;4.30;99.90;;;;;;5062203;28;20410;-51
2022/01/13 06:05:51;;;;;;;209.70;32.25;;;4.30;99.90;;;;;;5064684;28;20068;-48
2022/01/13 06:08:17;;;;;;;262.30;33.13;;;4.30;99.90;;;;;;5059323;28;20198;-49
2022/01/13 06:10:45;;;;;;;247.75;32.72;;;4.30;99.90;;;;;;5058915;28;20063;-49
2022/01/13 06:13:11;;;;;;;278.65;33.85;;;4.30;99.90;;;;;;5055329;28;20048;-49
2022/01/13 06:15:37;;;;;;;259.10;33.63;;;4.30;99.90;;;;;;5062390;28;20063;-52
2022/01/13 06:18:04;;;;;;;267.67;33.72;;;4.30;99.90;;;;;;5057827;28;20048;-51
2022/01/13 06:20:30;;;;;;;251.18;33.72;;;4.30;99.90;;;;;;5059523;28;20047;-48
2022/01/13 06:22:58;;;;;;;240.13;31.95;;;4.20;99.90;;;;;;5062216;28;20180;-52
2022/01/13 06:25:23;;;;;;;272.63;34.47;;;4.30;99.90;;;;;;5058459;28;20114;-50
2022/01/13 06:27:49;;;;;;;251.45;33.03;;;4.30;99.90;;;;;;5060612;28;20474;-48
2022/01/13 06:30:15;;;;;;;259.42;34.38;;;4.30;99.90;;;;;;5059668;28;20132;-53
2022/01/13 06:32:42;;;;;;;269.20;32.90;;;4.30;99.90;;;;;;5060039;28;20091;-51
2022/01/13 06:35:09;;;;;;;194.55;32.63;;;4.30;99.90;;;;;;5056722;28;20077;-48
2022/01/13 06:37:34;;;;;;;190.27;31.60;;;4.20;99.90;;;;;;5062914;28;20036;-48
2022/01/13 06:40:02;;;;;;;267.05;34.20;;;4.20;99.90;;;;;;5061008;28;20094;-49
2022/01/13 06:42:28;;;;;;;241.35;33.40;;;4.30;99.90;;;;;;5055428;28;20083;-50
2022/01/13 06:44:53;;;;;;;291.33;34.05;;;4.20;99.90;;;;;;5058576;28;20063;-49
2022/01/13 06:47:19;;;;;;;277.42;33.13;;;4.20;99.90;;;;;;5058570;28;20033;-47
2022/01/13 06:49:44;;;;;;;202.65;32.38;;;4.20;99.90;;;;;;5063224;28;20101;-48
2022/01/13 06:52:10;;;;;;;229.35;32.25;;;4.30;99.90;;;;;;5052291;28;20087;-51
2022/01/13 06:54:36;;;;;;;274.10;34.45;;;4.30;99.90;;;;;;5061947;28;20494;-50
2022/01/13 06:57:02;;;;;;;292.77;35.08;;;4.20;99.90;;;;;;5067634;28;20041;-48
2022/01/13 06:59:27;;;;;;;188.68;30.67;;;4.30;99.90;;;;;;5052546;28;21235;-50
2022/01/13 07:01:53;;;;;;;228.30;33.38;;;4.30;99.90;;;;;;5056952;28;20076;-49
2022/01/13 07:04:19;;;;;;;192.55;33.20;;;4.30;99.90;;;;;;5053812;28;20483;-51
2022/01/13 07:06:45;;;;;;;264.48;35.55;;;4.30;99.90;;;;;;5053736;28;20688;-52
2022/01/13 07:09:15;;;;;;;224.40;31.60;;;4.30;99.90;;;;;;5056173;28;20083;-50
2022/01/13 07:11:42;;;;;;;194.50;33.70;;;4.30;99.90;;;;;;5055915;28;20063;-49
2022/01/13 07:14:07;;;;;;;281.77;35.35;;;4.30;99.90;;;;;;5055498;28;20476;-49
2022/01/13 07:16:34;;;;;;;255.85;35.20;;;4.30;99.90;;;;;;5061814;28;20090;-50
2022/01/13 07:19:01;;;;;;;225.85;34.67;;;4.30;99.90;;;;;;5064758;28;20442;-52
2022/01/13 07:21:27;;;;;;;195.90;33.78;;;4.30;99.90;;;;;;5062878;28;20044;-51
2022/01/13 07:23:54;;;;;;;240.32;34.03;;;4.30;99.90;;;;;;5057391;28;20109;-49
2022/01/13 07:26:20;;;;;;;283.60;34.47;;;4.30;99.90;;;;;;5057517;28;20056;-50
2022/01/13 07:28:45;;;;;;;250.80;34.38;;;4.30;99.90;;;;;;5061817;28;20049;-48
2022/01/13 07:31:14;;;;;;;335.67;37.90;;;4.30;99.90;;;;;;5058397;28;20048;-49
2022/01/13 07:33:42;;;;;;;349.50;37.70;;;4.30;99.90;;;;;;5061575;28;20059;-49
2022/01/13 07:36:08;;;;;;;226.57;33.97;;;4.30;99.90;;;;;;5060647;28;20045;-49
2022/01/13 07:38:34;;;;;;;238.50;34.80;;;4.30;99.90;;;;;;5067651;28;20140;-52
2022/01/13 07:40:59;;;;;;;240.07;34.03;;;4.30;99.90;;;;;;5066384;28;20040;-49
2022/01/13 07:43:26;;;;;;;180.00;32.20;;;4.30;99.90;;;;;;5066235;28;20471;-48
2022/01/13 07:45:52;;;;;;;236.07;34.92;;;4.30;99.90;;;;;;5069138;28;20037;-49
2022/01/13 07:48:18;;;;;;;184.68;31.90;;;4.30;99.90;;;;;;5059999;28;20040;-49
2022/01/13 07:50:44;;;;;;;173.55;31.00;;;4.30;99.90;;;;;;5061086;28;20424;-52
2022/01/13 07:53:10;;;;;;;229.35;34.08;;;4.30;99.90;;;;;;5066438;28;20124;-51
2022/01/13 07:55:36;;;;;;;205.68;32.95;;;4.30;99.90;;;;;;5065674;28;20077;-48
2022/01/13 07:58:02;;;;;;;195.50;31.02;;;4.30;99.90;;;;;;5063183;28;20116;-52
2022/01/13 08:00:28;;;;;;;171.20;31.02;;;4.30;99.90;;;;;;5057031;28;20554;-51
2022/01/13 08:02:53;;;;;;;228.40;33.53;;;4.30;99.90;;;;;;5056115;28;20032;-49
2022/01/13 08:05:19;;;;;;;208.30;32.92;;;4.30;99.90;;;;;;5057355;28;20270;-49
2022/01/13 08:07:45;;;;;;;187.52;30.73;;;4.30;99.90;;;;;;5057256;28;20118;-50
2022/01/13 08:10:10;;;;;;;222.93;33.08;;;4.30;99.90;;;;;;5056182;28;20478;-51
2022/01/13 08:12:38;;;;;;;194.68;32.20;;;4.40;99.90;;;;;;5057296;28;20111;-48
2022/01/13 08:15:07;;;;;;;243.85;33.33;;;4.40;99.90;;;;;;5057932;28;20048;-50
2022/01/13 08:20:17;;;;;;;186.80;31.15;;;4.40;99.90;;;;;;5057683;28;20062;-48
2022/01/13 08:22:42;;;;;;;173.38;31.48;;;4.40;99.90;;;;;;5057338;28;20112;-48
2022/01/13 08:25:09;;;;;;;198.80;31.83;;;4.40;99.90;;;;;;5057916;28;20044;-48
2022/01/13 08:27:35;;;;;;;157.90;29.52;;;4.40;99.90;;;;;;5056809;28;20120;-48
2022/01/13 08:30:00;;;;;;;162.55;29.88;;;4.50;99.90;;;;;;5059541;28;20549;-49
2022/01/13 08:32:26;;;;;;;202.75;31.38;;;4.50;99.90;;;;;;5057711;28;20037;-49
2022/01/13 08:34:51;;;;;;;156.52;29.52;;;4.50;99.90;;;;;;5057175;28;20055;-52
2022/01/13 08:37:17;;;;;;;143.07;28.70;;;4.50;99.90;;;;;;5055946;28;21118;-49
2022/01/13 08:39:45;;;;;;;143.57;28.70;;;4.50;99.90;;;;;;5067819;28;20488;-50
2022/01/13 08:42:14;;;;;;;164.60;29.27;;;4.50;99.90;;;;;;5071191;28;20120;-48
2022/01/13 08:44:40;;;;;;;207.15;30.85;;;4.50;99.90;;;;;;5062019;28;20040;-51
2022/01/13 08:47:06;;;;;;;144.45;29.25;;;4.50;99.90;;;;;;5053275;28;20048;-52
2022/01/13 08:49:33;;;;;;;132.25;28.02;;;4.50;99.90;;;;;;5069857;28;20044;-47
2022/01/13 08:52:00;;;;;;;164.43;28.50;;;4.60;99.90;;;;;;5070096;28;20087;-48
2022/01/13 08:54:26;;;;;;;148.02;28.90;;;4.60;99.90;;;;;;5071379;28;20051;-52
2022/01/13 08:56:51;;;;;;;153.27;29.13;;;4.60;99.90;;;;;;5073118;28;20052;-47
2022/01/13 08:59:18;;;;;;;151.77;29.90;;;4.60;99.90;;;;;;5072397;28;20055;-49
2022/01/13 09:01:43;;;;;;;130.18;27.55;;;4.60;99.90;;;;;;5068976;28;20075;-50
2022/01/13 09:04:09;;;;;;;152.35;29.08;;;4.60;99.90;;;;;;5069435;28;20499;-49
2022/01/13 09:06:34;;;;;;;130.93;27.90;;;4.60;99.90;;;;;;5057031;28;20043;-49
2022/01/13 09:09:00;;;;;;;112.30;26.80;;;4.60;99.90;;;;;;5072078;28;20036;-49
2022/01/13 09:11:27;;;;;;;123.72;28.17;;;4.60;99.90;;;;;;5071726;28;20057;-49
2022/01/13 09:13:57;;;;;;;149.85;27.55;;;4.60;99.90;;;;;;5059909;28;20053;-49
2022/01/13 09:16:30;;;;;;;135.70;26.38;;;4.60;99.90;;;;;;5065387;28;20052;-48
2022/01/13 09:21:27;;;;;;;160.57;29.23;;;4.70;99.90;;;;;;5052911;28;20049;-49
2022/01/13 09:23:53;;;;;;;120.10;25.73;;;4.70;99.90;;;;;;5052355;28;20106;-51
2022/01/13 09:26:19;;;;;;;146.68;28.73;;;4.70;99.90;;;;;;5052204;28;20081;-49
2022/01/13 09:28:44;;;;;;;100.20;25.55;;;4.70;99.90;;;;;;5066953;28;20080;-49
2022/01/13 09:31:10;;;;;;;151.05;27.80;;;4.70;99.90;;;;;;5071409;28;20083;-49
2022/01/13 09:33:36;;;;;;;172.93;28.80;;;4.70;99.90;;;;;;5071411;28;20093;-48
2022/01/13 09:36:03;;;;;;;137.65;27.58;;;4.70;99.90;;;;;;5071520;28;20047;-48
2022/01/13 09:38:29;;;;;;;145.30;27.87;;;4.70;99.90;;;;;;5067583;28;20371;-52
2022/01/13 09:40:54;;;;;;;149.80;27.08;;;4.70;99.90;;;;;;5065421;28;20052;-47
2022/01/13 09:43:26;;;;;;;138.25;27.35;;;4.80;99.90;;;;;;5056807;28;20102;-49
2022/01/13 09:45:54;;;;;;;136.63;26.15;;;4.80;99.90;;;;;;5058770;28;20096;-47
2022/01/13 09:48:20;;;;;;;114.60;25.40;;;4.80;99.90;;;;;;5055779;28;20045;-48
2022/01/13 09:50:47;;;;;;;112.63;25.77;;;4.80;99.90;;;;;;5056813;28;20055;-49
2022/01/13 09:53:16;;;;;;;122.55;26.70;;;4.80;99.90;;;;;;5060920;28;20040;-47
2022/01/13 09:55:44;;;;;;;111.63;26.75;;;4.80;99.90;;;;;;5052063;28;20527;-48
2022/01/13 09:58:10;;;;;;;103.75;24.17;;;4.90;99.90;;;;;;5062106;28;20045;-49
2022/01/13 10:00:38;;;;;;;111.45;25.50;;;4.90;99.90;;;;;;5069755;28;20529;-47
2022/01/13 10:03:25;;;;;;;109.45;24.00;;;4.90;99.90;;;;;;5068624;28;20044;-50
2022/01/13 10:05:54;;;;;;;84.97;23.60;;;4.90;99.90;;;;;;5064905;28;20040;-48
2022/01/13 10:08:39;;;;;;;128.70;26.27;;;5.00;99.90;;;;;;5070953;28;20047;-52
2022/01/13 10:11:38;;;;;;;77.53;21.13;;;5.00;99.90;;;;;;5063511;28;20051;-50
2022/01/13 10:17:07;;;;;;;89.13;23.88;;;5.00;99.90;;;;;;5035283;28;20494;-49
2022/01/13 10:19:33;;;;;;;95.55;23.42;;;5.00;99.90;;;;;;5068436;28;20036;-51
2022/01/13 10:22:11;;;;;;;104.45;24.75;;;5.00;99.90;;;;;;5063608;28;20078;-49
2022/01/13 10:24:37;;;;;;;;;;;5.00;99.90;;;;;;5070374;28;20063;-49
2022/01/13 10:27:08;;;;;;;102.07;25.15;;;;;;;;;;5070626;28;19928;-48
2022/01/13 10:29:43;;;;;;;102.18;24.52;;;;;;;;;;5058430;28;20048;-48
2022/01/13 10:32:13;;;;;;;93.50;25.23;;;;;;;;;;5054140;28;20044;-51
2022/01/13 10:34:40;;;;;;;95.97;26.85;;;;;;;;;;5057728;28;20045;-52
2022/01/13 10:37:13;;;;;;;97.43;24.40;;;;;;;;;;5071409;28;20045;-48
2022/01/13 10:39:51;;;;;;;104.70;26.55;;;;;;;;;;5060366;28;20865;-49
2022/01/13 10:43:06;;;;;;;95.25;25.70;;;;;;;;;;5071672;28;20075;-49
2022/01/13 10:45:19;;;;;;;106.75;24.58;;;;;;;;;;5061480;28;20055;-51
2022/01/13 10:47:52;;;;;;;104.70;25.27;;;;;;;;;;5071392;28;20119;-48
2022/01/13 10:50:18;;;;;;;91.80;24.20;;;;;;;;;;5069206;28;20044;-50
2022/01/13 10:52:44;;;;;;;78.38;24.20;;;;;;;;;;5070680;28;20047;-52
2022/01/13 10:55:14;;;;;;;92.10;25.83;;;;;;;;;;5057096;28;20037;-50
2022/01/13 10:57:42;;;;;;;83.53;25.50;;;;;;;;;;5064230;28;20586;-48
2022/01/13 11:00:17;;;;;;;82.55;24.90;;;;;;;;;;5058893;28;20078;-47
2022/01/13 11:02:58;;;;;;;105.65;27.13;;;;;;;;;;5054015;28;20446;-48
2022/01/13 11:05:24;;;;;;;92.55;25.15;;;;;;;;;;5055790;28;20454;-46
2022/01/13 11:07:50;;;;;;;104.75;26.88;;;;;;;;;;5057991;28;20172;-47
2022/01/13 11:10:17;;;;;;;116.72;26.90;;;;;;;;;;5057688;28;20077;-49
2022/01/13 11:12:44;;;;;;;90.50;24.83;;;;;;;;;;5071491;28;20060;-49
2022/01/13 11:15:15;;;;;;;93.68;27.13;;;;;;;;;;5074301;28;20064;-49
2022/01/13 11:17:43;;;;;;;89.22;26.02;;;;;;;;;;5071223;28;20044;-51
2022/01/13 11:20:11;;;;;;;80.50;24.70;;;;;;;;;;5055490;28;20080;-51
2022/01/13 11:22:38;;;;;;;90.43;24.60;;;;;;;;;;5066599;28;20464;-50
2022/01/13 11:25:08;;;;;;;84.07;25.95;;;;;;;;;;5062153;28;20048;-49
2022/01/13 11:27:34;;;;;;;90.75;25.25;;;;;;;;;;5063392;28;20415;-47
2022/01/13 11:30:01;;;;;;;91.88;24.70;;;;;;;;;;5057434;28;20045;-49
2022/01/13 11:32:27;;;;;;;93.45;24.15;;;;;;;;;;5064304;28;20404;-48
2022/01/13 11:34:54;;;;;;;81.95;24.65;;;;;;;;;;5072481;28;20044;-46
2022/01/13 11:37:20;;;;;;;97.40;25.80;;;;;;;;;;5066176;28;21387;-48
2022/01/13 11:39:46;;;;;;;97.40;25.80;;;;;;;;;;5062165;28;20467;-48
2022/01/13 11:42:13;;;;;;;114.97;26.92;;;;;;;;;;5072784;28;20036;-50
2022/01/13 11:44:41;;;;;;;99.13;25.00;;;;;;;;;;5062435;28;20526;-48
2022/01/13 11:47:17;;;;;;;107.47;25.92;;;;;;;;;;5063533;28;20052;-48
2022/01/13 11:52:41;;;;;;;79.85;25.42;;;;;;;;;;5064185;28;20049;-47
2022/01/13 11:55:22;;;;;;;77.13;24.88;;;;;;;;;;5074010;28;20080;-48
2022/01/13 11:57:49;;;;;;;98.25;25.55;;;;;;;;;;5066227;28;20135;-49
2022/01/13 12:00:25;;;;;;;79.53;25.48;;;;;;;;;;5062817;28;20036;-50
2022/01/13 12:02:52;;;;;;;86.82;25.17;;;;;;;;;;5062971;28;20140;-49
2022/01/13 12:05:20;;;;;;;85.78;25.73;;;;;;;;;;5071693;28;20076;-48
2022/01/13 12:07:47;;;;;;;87.57;26.30;;;;;;;;;;5069277;28;20509;-48
2022/01/13 12:10:25;;;;;;;74.93;24.23;;;;;;;;;;5063783;28;20553;-51
2022/01/13 12:12:52;;;;;;;80.18;26.58;;;;;;;;;;5065903;28;20052;-51
2022/01/13 12:15:18;;;;;;;88.88;27.15;;;;;;;;;;5071794;28;20416;-50
2022/01/13 12:17:52;;;;;;;93.40;26.92;;;;;;;;;;5073636;28;20056;-47
2022/01/13 12:20:21;;;;;;;94.53;26.85;;;;;;;;;;5070311;28;20051;-49
2022/01/13 12:23:03;;;;;;;70.68;24.77;;;;;;;;;;5063479;28;20367;-49
2022/01/13 12:25:31;;;;;;;75.90;24.95;;;;;;;;;;5073224;28;20055;-48
2022/01/13 12:27:58;;;;;;;68.20;24.45;;;;;;;;;;5071805;28;20245;-49
2022/01/13 12:30:29;;;;;;;72.75;25.33;;;;;;;;;;5065696;28;20127;-50
2022/01/13 12:33:03;;;;;;;80.95;24.50;;;;;;;;;;5071828;28;20127;-49
2022/01/13 12:35:38;;;;;;;80.07;24.60;;;;;;;;;;5072711;28;20048;-51
2022/01/13 12:38:10;;;;;;;75.13;25.15;;;;;;;;;;5063440;28;20056;-49
2022/01/13 12:40:48;;;;;;;66.95;23.80;;;;;;;;;;5064923;28;20048;-48
2022/01/13 12:43:21;;;;;;;71.53;23.83;;;;;;;;;;5071683;28;20102;-48
2022/01/13 12:45:47;;;;;;;80.63;26.05;;;;;;;;;;5057864;28;20127;-50
2022/01/13 12:48:13;;;;;;;68.60;24.88;;;;;;;;;;5052671;28;20052;-49
2022/01/13 12:50:44;;;;;;;77.65;24.20;;;;;;;;;;5062427;28;20041;-50
2022/01/13 12:53:15;;;;;;;71.95;25.77;;;;;;;;;;5061645;28;20044;-50
2022/01/13 12:55:44;;;;;;;67.05;23.58;;;;;;;;;;5067928;28;20052;-50
2022/01/13 12:58:10;;;;;;;65.03;23.75;;;;;;;;;;5067601;28;20052;-49
2022/01/13 13:00:37;;;;;;;65.00;24.08;;;;;;;;;;5070692;28;20049;-49
2022/01/13 13:03:08;;;;;;;62.88;23.92;;;;;;;;;;5066848;28;20513;-49
2022/01/13 13:05:56;;;;;;;66.95;25.20;;;;;;;;;;5072726;28;20117;-48
2022/01/13 13:08:23;;;;;;;65.25;25.23;;;;;;;;;;5067909;28;20037;-49
2022/01/13 13:10:51;;;;;;;65.85;24.17;;;;;;;;;;5070171;28;20101;-47
2022/01/13 13:13:19;;;;;;;67.75;24.77;;;;;;;;;;5061619;28;20514;-48
2022/01/13 13:15:52;;;;;;;61.95;24.35;;;;;;;;;;5071984;28;20517;-52
2022/01/13 13:18:20;;;;;;;68.88;25.23;;;;;;;;;;5060579;28;20056;-47
2022/01/13 13:20:48;;;;;;;;;;;;;;;;;;5053676;28;20429;-47
2022/01/13 13:23:14;;;;;;;57.80;24.58;;;;;;;;;;5058597;28;20263;-48
2022/01/13 13:25:42;;;;;;;58.83;24.17;;;;;;;;;;5066213;28;20494;-48